createdAt,value
2023-04-20T00:01:14.658Z,36.70
2023-04-20T00:03:52.174Z,37.60
2023-04-20T00:06:33.223Z,41.40
2023-04-20T00:09:09.692Z,34.00
2023-04-20T00:11:48.364Z,35.90
2023-04-20T00:14:24.936Z,36.50
2023-04-20T00:17:01.278Z,33.60
2023-04-20T00:19:37.651Z,36.80
2023-04-20T00:22:17.712Z,35.90
2023-04-20T00:24:54.015Z,33.90
2023-04-20T00:27:36.302Z,38.20
2023-04-20T00:30:20.744Z,35.90
2023-04-20T00:32:57.369Z,34.00
2023-04-20T00:35:34.465Z,37.50
2023-04-20T00:38:10.817Z,39.00
2023-04-20T00:40:53.230Z,36.00
2023-04-20T00:43:29.770Z,37.00
2023-04-20T00:46:06.276Z,37.10
2023-04-20T00:48:49.117Z,40.10
2023-04-20T00:51:26.500Z,39.00
2023-04-20T00:54:03.268Z,36.40
2023-04-20T00:56:40.928Z,36.90
2023-04-20T00:59:18.110Z,35.50
2023-04-20T01:01:55.752Z,40.70
2023-04-20T01:04:32.331Z,42.50
2023-04-20T01:07:09.157Z,36.10
2023-04-20T01:09:45.469Z,36.30
2023-04-20T01:12:21.630Z,30.60
2023-04-20T01:14:58.030Z,37.80
2023-04-20T01:17:35.007Z,39.10
2023-04-20T01:20:15.335Z,41.50
2023-04-20T01:22:56.762Z,39.20
2023-04-20T01:25:33.894Z,40.10
2023-04-20T01:28:11.313Z,38.70
2023-04-20T01:30:48.218Z,42.80
2023-04-20T01:33:24.607Z,38.40
2023-04-20T01:36:02.142Z,43.60
2023-04-20T01:38:39.588Z,40.40
2023-04-20T01:41:16.537Z,42.00
2023-04-20T01:43:52.899Z,40.60
2023-04-20T01:46:29.468Z,37.50
2023-04-20T01:49:06.084Z,40.50
2023-04-20T01:51:42.560Z,40.90
2023-04-20T01:54:18.865Z,41.40
2023-04-20T01:56:55.351Z,44.50
2023-04-20T01:59:33.574Z,41.70
2023-04-20T02:02:11.414Z,43.90
2023-04-20T02:04:53.401Z,42.60
2023-04-20T02:07:30.124Z,41.50
2023-04-20T02:10:07.202Z,44.20
2023-04-20T02:12:43.418Z,44.70
2023-04-20T02:15:20.053Z,45.40
2023-04-20T02:17:57.604Z,44.10
2023-04-20T02:20:34.300Z,44.20
2023-04-20T02:23:11.170Z,42.10
2023-04-20T02:25:47.537Z,45.20
2023-04-20T02:28:23.907Z,44.00
2023-04-20T02:31:00.184Z,42.40
2023-04-20T02:33:37.442Z,44.10
2023-04-20T02:36:15.043Z,51.00
2023-04-20T02:38:51.287Z,41.00
2023-04-20T02:41:30.440Z,44.50
2023-04-20T02:44:07.068Z,43.50
2023-04-20T02:46:45.094Z,45.60
2023-04-20T02:49:21.698Z,45.20
2023-04-20T02:52:03.947Z,45.40
2023-04-20T02:54:40.245Z,43.60
2023-04-20T02:57:20.109Z,41.10
2023-04-20T02:59:56.726Z,44.70
2023-04-20T03:02:47.033Z,46.30
2023-04-20T03:05:24.333Z,44.20
2023-04-20T03:08:01.224Z,44.20
2023-04-20T03:10:37.692Z,43.70
2023-04-20T03:13:22.962Z,48.70
2023-04-20T03:16:06.885Z,46.40
2023-04-20T03:18:51.765Z,44.70
2023-04-20T03:21:28.735Z,44.60
2023-04-20T03:24:06.269Z,45.90
2023-04-20T03:26:42.800Z,42.80
2023-04-20T03:29:25.407Z,45.30
2023-04-20T03:32:02.333Z,44.90
2023-04-20T03:34:38.752Z,45.30
2023-04-20T03:37:15.678Z,48.80
2023-04-20T03:39:52.208Z,51.60
2023-04-20T03:42:30.311Z,44.40
2023-04-20T03:45:08.603Z,44.50
2023-04-20T03:47:49.365Z,47.90
2023-04-20T03:50:26.538Z,48.10
2023-04-20T03:53:03.138Z,46.60
2023-04-20T03:55:40.960Z,47.70
2023-04-20T03:58:21.158Z,48.10
2023-04-20T04:01:21.407Z,43.70
2023-04-20T04:03:58.615Z,46.10
2023-04-20T04:06:35.057Z,45.20
2023-04-20T04:09:11.629Z,44.50
2023-04-20T04:11:47.992Z,51.40
2023-04-20T04:14:24.452Z,47.10
2023-04-20T04:17:02.855Z,46.00
2023-04-20T04:19:39.958Z,49.20
2023-04-20T04:22:16.340Z,47.90
2023-04-20T04:25:04.122Z,47.90
2023-04-20T04:27:42.280Z,45.20
2023-04-20T04:30:20.012Z,46.10
2023-04-20T04:32:57.729Z,51.50
2023-04-20T04:35:34.725Z,51.40
2023-04-20T04:38:12.864Z,58.90
2023-04-20T04:40:52.587Z,55.80
2023-04-20T04:43:31.004Z,72.60
2023-04-20T04:46:16.723Z,61.00
2023-04-20T04:49:13.610Z,54.90
2023-04-20T04:51:52.760Z,60.70
2023-04-20T04:54:36.646Z,59.10
2023-04-20T04:57:13.048Z,58.60
2023-04-20T04:59:49.409Z,51.20
2023-04-20T05:02:25.853Z,49.80
2023-04-20T05:05:02.300Z,41.00
2023-04-20T05:07:40.284Z,43.80
2023-04-20T05:10:16.905Z,44.40
2023-04-20T05:13:16.515Z,45.30
2023-04-20T05:15:57.159Z,43.50
2023-04-20T05:18:33.652Z,50.10
2023-04-20T05:21:11.279Z,42.30
2023-04-20T05:23:47.604Z,43.40
2023-04-20T05:26:24.475Z,42.30
2023-04-20T05:29:00.628Z,41.60
2023-04-20T05:31:36.882Z,42.10
2023-04-20T05:34:13.929Z,39.60
2023-04-20T05:36:51.190Z,41.50
2023-04-20T05:39:30.672Z,41.30
2023-04-20T05:42:07.128Z,37.30
2023-04-20T05:44:44.170Z,40.40
2023-04-20T05:47:20.562Z,39.50
2023-04-20T05:49:57.004Z,36.80
2023-04-20T05:52:33.601Z,38.40
2023-04-20T05:55:12.196Z,37.70
2023-04-20T05:57:48.683Z,35.50
2023-04-20T06:00:26.457Z,34.90
2023-04-20T06:03:03.114Z,35.60
2023-04-20T06:05:39.796Z,35.20
2023-04-20T06:08:19.637Z,32.30
2023-04-20T06:10:59.507Z,32.30
2023-04-20T06:13:35.986Z,34.20
2023-04-20T06:16:13.369Z,33.90
2023-04-20T06:18:52.375Z,31.80
2023-04-20T06:21:28.699Z,35.50
2023-04-20T06:24:05.659Z,35.40
2023-04-20T06:26:41.895Z,35.80
2023-04-20T06:29:18.883Z,31.60
2023-04-20T06:31:55.372Z,32.80
2023-04-20T06:34:41.318Z,36.40
2023-04-20T06:37:21.698Z,31.60
2023-04-20T06:40:00.572Z,31.30
2023-04-20T06:42:37.525Z,28.90
2023-04-20T06:45:16.200Z,27.40
2023-04-20T06:47:52.494Z,28.60
2023-04-20T06:50:29.449Z,24.20
2023-04-20T06:53:06.779Z,23.60
2023-04-20T06:55:43.333Z,21.90
2023-04-20T06:58:19.764Z,21.70
2023-04-20T07:00:56.080Z,22.20
2023-04-20T07:03:32.881Z,20.40
2023-04-20T07:06:11.360Z,18.30
2023-04-20T07:08:48.236Z,20.50
2023-04-20T07:11:25.029Z,21.20
2023-04-20T07:14:01.542Z,20.70
2023-04-20T07:16:37.918Z,20.20
2023-04-20T07:19:14.378Z,20.30
2023-04-20T07:21:50.665Z,18.20
2023-04-20T07:24:27.823Z,20.30
2023-04-20T07:27:08.941Z,21.40
2023-04-20T07:29:45.413Z,18.70
2023-04-20T07:32:21.922Z,21.40
2023-04-20T07:34:58.514Z,17.60
2023-04-20T07:37:36.631Z,14.50
2023-04-20T07:40:17.045Z,15.80
2023-04-20T07:43:00.015Z,15.50
2023-04-20T07:45:36.921Z,18.60
2023-04-20T07:48:15.216Z,16.30
2023-04-20T07:50:51.873Z,15.20
2023-04-20T07:53:28.428Z,18.50
2023-04-20T07:56:05.339Z,17.50
2023-04-20T07:58:41.565Z,17.20
2023-04-20T08:01:18.089Z,15.90
2023-04-20T08:03:58.980Z,15.50
2023-04-20T08:06:35.860Z,17.60
2023-04-20T08:09:13.407Z,18.10
2023-04-20T08:11:49.988Z,20.50
2023-04-20T08:14:26.421Z,14.40
2023-04-20T08:17:03.793Z,14.30
2023-04-20T08:19:43.787Z,18.10
2023-04-20T08:22:22.153Z,15.00
2023-04-20T08:24:58.681Z,19.30
2023-04-20T08:27:35.021Z,19.10
2023-04-20T08:30:14.513Z,15.40
2023-04-20T08:32:51.029Z,14.40
2023-04-20T08:35:27.696Z,14.80
2023-04-20T08:38:03.995Z,16.50
2023-04-20T08:40:41.324Z,14.80
2023-04-20T08:43:17.677Z,15.70
2023-04-20T08:45:59.120Z,14.30
2023-04-20T08:48:39.445Z,12.90
2023-04-20T08:51:18.288Z,13.00
2023-04-20T08:53:56.185Z,14.30
2023-04-20T08:56:44.011Z,16.00
2023-04-20T08:59:21.493Z,12.00
2023-04-20T09:01:57.914Z,13.20
2023-04-20T09:04:34.697Z,12.70
2023-04-20T09:07:24.166Z,13.10
2023-04-20T09:10:04.818Z,13.30
2023-04-20T09:12:48.389Z,11.80
2023-04-20T09:15:35.965Z,11.90
2023-04-20T09:18:21.573Z,11.50
2023-04-20T09:21:10.719Z,16.00
2023-04-20T09:23:56.927Z,12.80
2023-04-20T09:26:37.452Z,11.20
2023-04-20T09:29:25.756Z,13.70
2023-04-20T09:32:02.231Z,12.30
2023-04-20T09:34:48.739Z,12.20
2023-04-20T09:37:26.748Z,11.70
2023-04-20T09:40:06.317Z,15.20
2023-04-20T09:42:44.993Z,14.70
2023-04-20T09:45:22.235Z,12.30
2023-04-20T09:48:00.798Z,18.00
2023-04-20T09:50:48.487Z,16.40
2023-04-20T09:53:26.485Z,19.20
2023-04-20T09:56:04.383Z,15.40
2023-04-20T09:58:41.474Z,15.00
2023-04-20T10:01:25.665Z,16.20
2023-04-20T10:04:11.945Z,13.80
2023-04-20T10:07:06.225Z,15.10
2023-04-20T10:09:42.707Z,17.10
2023-04-20T10:12:20.441Z,14.40
2023-04-20T10:15:02.480Z,14.10
2023-04-20T10:17:39.976Z,16.90
2023-04-20T10:20:28.527Z,15.80
2023-04-20T10:23:16.356Z,16.50
2023-04-20T10:26:04.047Z,15.60
2023-04-20T10:28:49.907Z,16.80
2023-04-20T10:31:36.411Z,15.20
2023-04-20T10:34:13.121Z,16.30
2023-04-20T10:36:49.549Z,16.70
2023-04-20T10:39:27.733Z,13.80
2023-04-20T10:42:04.075Z,13.40
2023-04-20T10:44:50.623Z,12.80
2023-04-20T10:47:37.734Z,14.30
2023-04-20T10:50:19.656Z,12.30
2023-04-20T10:52:57.400Z,13.20
2023-04-20T10:55:34.425Z,15.00
2023-04-20T10:58:10.982Z,11.80
2023-04-20T11:00:57.877Z,13.50
2023-04-20T11:03:36.378Z,12.50
2023-04-20T11:06:13.935Z,12.90
2023-04-20T11:08:50.354Z,14.80
2023-04-20T11:11:40.467Z,10.20
2023-04-20T11:14:26.995Z,12.40
2023-04-20T11:17:03.725Z,11.50
2023-04-20T11:19:41.252Z,11.50
2023-04-20T11:22:25.517Z,12.80
2023-04-20T11:25:15.044Z,10.30
2023-04-20T11:27:51.377Z,11.50
2023-04-20T11:30:28.077Z,14.70
2023-04-20T11:33:04.573Z,12.50
2023-04-20T11:35:44.858Z,17.60
2023-04-20T11:38:32.204Z,12.80
2023-04-20T11:41:09.999Z,11.10
2023-04-20T11:43:46.777Z,11.40
2023-04-20T11:46:44.178Z,12.40
2023-04-20T11:49:21.608Z,14.20
2023-04-20T11:51:58.363Z,11.80
2023-04-20T11:54:35.226Z,12.50
2023-04-20T11:57:11.679Z,14.90
2023-04-20T11:59:49.355Z,10.50
2023-04-20T12:02:26.194Z,12.60
2023-04-20T12:05:03.828Z,15.00
2023-04-20T12:07:40.707Z,13.50
2023-04-20T12:10:17.176Z,14.40
2023-04-20T12:12:53.878Z,16.40
2023-04-20T12:15:30.358Z,17.90
2023-04-20T12:18:07.064Z,11.50
2023-04-20T12:20:43.377Z,14.30
2023-04-20T12:23:20.412Z,15.70
2023-04-20T12:25:56.665Z,14.20
2023-04-20T12:28:33.406Z,13.60
2023-04-20T12:31:10.043Z,15.70
2023-04-20T12:33:46.484Z,14.40
2023-04-20T12:36:22.846Z,10.60
2023-04-20T12:38:59.588Z,10.20
2023-04-20T12:41:43.819Z,11.80
2023-04-20T12:44:20.533Z,14.50
2023-04-20T12:46:57.407Z,13.60
2023-04-20T12:49:34.382Z,15.90
2023-04-20T12:52:11.385Z,17.00
2023-04-20T12:54:47.605Z,16.30
2023-04-20T12:57:24.110Z,13.10
2023-04-20T13:00:02.697Z,11.80
2023-04-20T13:02:39.388Z,13.60
2023-04-20T13:05:16.655Z,15.10
2023-04-20T13:08:04.720Z,13.60
2023-04-20T13:10:43.609Z,18.70
2023-04-20T13:13:19.856Z,23.50
2023-04-20T13:15:57.760Z,16.60
2023-04-20T13:18:34.989Z,12.00
2023-04-20T13:21:15.879Z,14.60
2023-04-20T13:23:58.167Z,12.60
2023-04-20T13:26:34.691Z,13.70
2023-04-20T13:29:11.417Z,13.90
2023-04-20T13:31:48.630Z,13.00
2023-04-20T13:34:25.046Z,13.90
2023-04-20T13:37:01.428Z,12.20
2023-04-20T13:39:37.979Z,13.40
2023-04-20T13:42:14.452Z,11.40
2023-04-20T13:44:54.929Z,14.20
2023-04-20T13:47:31.501Z,12.40
2023-04-20T13:50:09.740Z,13.60
2023-04-20T13:52:46.291Z,13.30
2023-04-20T13:55:26.929Z,12.40
2023-04-20T13:58:03.550Z,13.00
2023-04-20T14:00:39.891Z,11.10
2023-04-20T14:03:21.368Z,15.30
2023-04-20T14:05:58.114Z,13.00
2023-04-20T14:08:34.706Z,8.50
2023-04-20T14:11:11.279Z,10.20
2023-04-20T14:13:50.185Z,14.20
2023-04-20T14:16:27.847Z,12.30
2023-04-20T14:19:04.679Z,11.40
2023-04-20T14:21:44.468Z,11.00
2023-04-20T14:24:20.827Z,13.00
2023-04-20T14:26:58.496Z,9.80
2023-04-20T14:29:36.164Z,11.70
2023-04-20T14:32:16.020Z,13.70
2023-04-20T14:34:52.343Z,13.00
2023-04-20T14:37:28.758Z,15.90
2023-04-20T14:40:07.390Z,10.90
2023-04-20T14:42:43.678Z,11.60
2023-04-20T14:45:20.986Z,10.60
2023-04-20T14:48:00.204Z,10.20
2023-04-20T14:50:41.561Z,9.20
2023-04-20T14:53:19.073Z,13.30
2023-04-20T14:55:56.362Z,12.20
2023-04-20T15:01:12.966Z,32.40
2023-04-20T15:03:53.385Z,12.50
2023-04-20T15:06:30.927Z,9.80
2023-04-20T15:09:07.558Z,9.40
2023-04-20T15:11:57.026Z,11.10
2023-04-20T15:14:33.800Z,14.10
2023-04-20T15:17:11.815Z,10.60
2023-04-20T15:19:48.174Z,12.40
2023-04-20T15:22:24.861Z,11.00
2023-04-20T15:25:01.125Z,11.90
2023-04-20T15:27:38.117Z,13.00
2023-04-20T15:30:16.430Z,11.10
2023-04-20T15:32:53.468Z,11.60
2023-04-20T15:35:30.153Z,9.40
2023-04-20T15:38:07.030Z,11.70
2023-04-20T15:40:45.055Z,14.20
2023-04-20T15:43:21.334Z,12.00
2023-04-20T15:45:57.776Z,11.60
2023-04-20T15:48:34.421Z,11.40
2023-04-20T15:51:11.052Z,8.00
2023-04-20T15:53:50.741Z,9.80
2023-04-20T15:56:27.426Z,21.00
2023-04-20T15:59:04.621Z,45.70
2023-04-20T16:01:41.412Z,13.30
2023-04-20T16:04:18.326Z,14.10
2023-04-20T16:07:00.969Z,10.20
2023-04-20T16:09:40.420Z,15.80
2023-04-20T16:12:22.407Z,9.80
2023-04-20T16:14:58.772Z,8.90
2023-04-20T16:17:43.326Z,19.90
2023-04-20T16:20:25.265Z,19.40
2023-04-20T16:23:03.683Z,11.50
2023-04-20T16:25:40.862Z,13.00
2023-04-20T16:28:21.273Z,16.30
2023-04-20T16:30:57.960Z,12.60
2023-04-20T16:33:35.738Z,14.60
2023-04-20T16:36:13.773Z,12.10
2023-04-20T16:38:50.319Z,14.40
2023-04-20T16:41:27.272Z,14.60
2023-04-20T16:44:03.678Z,9.40
2023-04-20T16:46:42.045Z,16.40
2023-04-20T16:49:19.600Z,13.30
2023-04-20T16:51:58.494Z,14.90
2023-04-20T16:55:00.573Z,13.20
2023-04-20T16:57:36.876Z,11.40
2023-04-20T17:00:17.526Z,14.20
2023-04-20T17:02:54.998Z,14.20
2023-04-20T17:05:31.768Z,14.00
2023-04-20T17:08:08.774Z,14.80
2023-04-20T17:10:45.196Z,11.70
2023-04-20T17:13:23.596Z,14.00
2023-04-20T17:16:00.143Z,19.90
2023-04-20T17:18:39.771Z,17.80
2023-04-20T17:21:24.180Z,34.70
2023-04-20T17:24:00.754Z,23.10
2023-04-20T17:26:37.459Z,14.30
2023-04-20T17:29:13.900Z,15.10
2023-04-20T17:31:50.558Z,21.90
2023-04-20T17:34:27.489Z,14.10
2023-04-20T17:37:03.921Z,20.30
2023-04-20T17:39:40.230Z,15.80
2023-04-20T17:42:16.857Z,19.40
2023-04-20T17:44:54.141Z,16.80
2023-04-20T17:47:32.681Z,20.60
2023-04-20T17:50:13.470Z,22.80
2023-04-20T17:52:49.985Z,22.60
2023-04-20T17:55:26.860Z,19.40
2023-04-20T17:58:04.887Z,16.90
2023-04-20T18:00:41.485Z,21.00
2023-04-20T18:03:20.159Z,18.40
2023-04-20T18:05:56.895Z,18.50
2023-04-20T18:08:34.516Z,20.30
2023-04-20T18:11:11.613Z,17.30
2023-04-20T18:13:47.973Z,21.20
2023-04-20T18:16:24.397Z,21.50
2023-04-20T18:19:29.368Z,71.40
2023-04-20T18:22:06.238Z,18.40
2023-04-20T18:24:42.686Z,16.50
2023-04-20T18:27:19.076Z,16.80
2023-04-20T18:29:59.919Z,20.60
2023-04-20T18:32:38.733Z,21.40
2023-04-20T18:35:16.743Z,24.80
2023-04-20T18:37:53.694Z,17.10
2023-04-20T18:40:30.021Z,16.50
2023-04-20T18:43:16.508Z,17.10
2023-04-20T18:45:52.778Z,15.80
2023-04-20T18:48:29.244Z,23.90
2023-04-20T18:51:05.774Z,22.00
2023-04-20T18:53:42.281Z,22.10
2023-04-20T18:56:21.135Z,19.40
2023-04-20T18:58:59.626Z,19.50
2023-04-20T19:01:40.664Z,14.20
2023-04-20T19:04:17.509Z,21.60
2023-04-20T19:06:54.252Z,22.50
2023-04-20T19:09:31.059Z,19.70
2023-04-20T19:12:12.595Z,18.60
2023-04-20T19:14:49.642Z,25.30
2023-04-20T19:17:33.563Z,19.30
2023-04-20T19:20:13.133Z,24.10
2023-04-20T19:22:49.639Z,74.20
2023-04-20T19:25:29.730Z,33.30
2023-04-20T19:28:08.255Z,25.60
2023-04-20T19:30:44.815Z,25.30
2023-04-20T19:33:21.435Z,23.60
2023-04-20T19:36:14.901Z,25.30
2023-04-20T19:38:51.840Z,23.00
2023-04-20T19:41:29.045Z,17.70
2023-04-20T19:44:06.622Z,23.10
2023-04-20T19:46:44.967Z,23.30
2023-04-20T19:49:21.654Z,19.40
2023-04-20T19:52:00.975Z,23.60
2023-04-20T19:54:37.341Z,20.30
2023-04-20T19:57:14.118Z,25.80
2023-04-20T19:59:51.170Z,24.10
2023-04-20T20:02:28.432Z,22.10
2023-04-20T20:05:06.801Z,19.90
2023-04-20T20:07:49.014Z,27.30
2023-04-20T20:10:25.457Z,26.90
2023-04-20T20:13:02.126Z,22.20
2023-04-20T20:15:38.633Z,21.00
2023-04-20T20:18:26.012Z,21.80
2023-04-20T20:21:02.392Z,24.30
2023-04-20T20:23:38.754Z,23.60
2023-04-20T20:26:15.211Z,23.10
2023-04-20T20:28:51.706Z,21.50
2023-04-20T20:31:28.790Z,24.60
2023-04-20T20:34:06.748Z,26.40
2023-04-20T20:36:46.014Z,19.40
2023-04-20T20:39:23.278Z,20.30
2023-04-20T20:41:59.828Z,33.30
2023-04-20T20:44:39.200Z,29.50
2023-04-20T20:47:15.677Z,21.40
2023-04-20T20:49:52.048Z,20.10
2023-04-20T20:52:28.413Z,19.00
2023-04-20T20:55:05.294Z,20.30
2023-04-20T20:57:41.629Z,19.50
2023-04-20T21:00:20.420Z,23.20
2023-04-20T21:02:57.850Z,21.20
2023-04-20T21:05:39.956Z,17.90
2023-04-20T21:08:17.400Z,18.00
2023-04-20T21:10:53.914Z,22.90
2023-04-20T21:13:30.379Z,18.00
2023-04-20T21:16:07.313Z,21.20
2023-04-20T21:18:57.462Z,19.80
2023-04-20T21:21:34.628Z,21.90
2023-04-20T21:24:12.694Z,22.10
2023-04-20T21:26:49.104Z,26.00
2023-04-20T21:29:26.879Z,20.10
2023-04-20T21:32:03.258Z,21.70
2023-04-20T21:34:39.828Z,21.40
2023-04-20T21:37:16.300Z,23.70
2023-04-20T21:39:53.529Z,23.90
2023-04-20T21:42:29.856Z,20.30
2023-04-20T21:45:10.558Z,22.00
2023-04-20T21:47:48.377Z,26.00
2023-04-20T21:50:27.196Z,20.30
2023-04-20T21:53:03.729Z,20.70
2023-04-20T21:55:40.177Z,24.70
2023-04-20T21:58:18.484Z,21.50
2023-04-20T22:00:54.984Z,24.20
2023-04-20T22:03:32.417Z,38.20
2023-04-20T22:06:09.966Z,29.50
2023-04-20T22:08:46.626Z,21.50
2023-04-20T22:11:22.876Z,20.40
2023-04-20T22:14:02.369Z,25.90
2023-04-20T22:16:39.292Z,22.70
2023-04-20T22:19:16.346Z,23.10
2023-04-20T22:21:54.664Z,21.20
2023-04-20T22:24:30.952Z,18.80
2023-04-20T22:27:09.431Z,19.70
2023-04-20T22:29:48.325Z,20.40
2023-04-20T22:32:28.550Z,20.70
2023-04-20T22:35:10.244Z,23.20
2023-04-20T22:37:46.566Z,24.50
2023-04-20T22:40:23.066Z,23.50
2023-04-20T22:43:09.780Z,28.70
2023-04-20T22:45:46.781Z,19.80
2023-04-20T22:48:23.213Z,22.70
2023-04-20T22:51:04.094Z,21.00
2023-04-20T22:53:40.335Z,23.60
2023-04-20T22:56:17.430Z,19.60
2023-04-20T22:58:59.435Z,20.90
2023-04-20T23:01:35.786Z,20.00
2023-04-20T23:04:12.485Z,23.00
2023-04-20T23:06:48.735Z,29.00
2023-04-20T23:09:25.115Z,19.60
2023-04-20T23:12:03.811Z,18.90
2023-04-20T23:14:43.751Z,19.50
2023-04-20T23:17:20.222Z,18.50
2023-04-20T23:19:56.716Z,26.80
2023-04-20T23:22:33.078Z,23.80
2023-04-20T23:25:11.429Z,23.80
2023-04-20T23:27:56.432Z,20.90
2023-04-20T23:30:32.913Z,21.30
2023-04-20T23:33:24.418Z,18.90
2023-04-20T23:36:05.743Z,30.70
2023-04-20T23:38:42.168Z,21.10
2023-04-20T23:41:19.905Z,22.30
2023-04-20T23:43:57.558Z,21.20
2023-04-20T23:46:34.605Z,20.60
2023-04-20T23:49:11.527Z,23.40
2023-04-20T23:52:00.885Z,20.80
2023-04-20T23:54:38.432Z,23.70
2023-04-20T23:57:14.835Z,23.30
2023-04-20T23:59:51.408Z,23.60
